sensor_id;sensor_type;location;lat;lon;timestamp;P1;durP1;ratioP1;P2;durP2;ratioP2
16845;SDS011;8539;53.188;8.696;2023-07-29T00:02:18;22.33;;;19.92;;
16845;SDS011;8539;53.188;8.696;2023-07-29T00:04:44;19.20;;;16.80;;
16845;SDS011;8539;53.188;8.696;2023-07-29T00:07:10;22.92;;;18.63;;
16845;SDS011;8539;53.188;8.696;2023-07-29T00:09:36;19.00;;;17.00;;
16845;SDS011;8539;53.188;8.696;2023-07-29T00:12:03;19.77;;;17.67;;
16845;SDS011;8539;53.188;8.696;2023-07-29T00:14:29;24.23;;;19.92;;
16845;SDS011;8539;53.188;8.696;2023-07-29T00:16:56;22.15;;;19.70;;
16845;SDS011;8539;53.188;8.696;2023-07-29T00:19:22;23.70;;;20.70;;
16845;SDS011;8539;53.188;8.696;2023-07-29T00:21:49;23.58;;;20.77;;
16845;SDS011;8539;53.188;8.696;2023-07-29T00:24:15;24.20;;;21.58;;
16845;SDS011;8539;53.188;8.696;2023-07-29T00:26:41;21.15;;;19.02;;
16845;SDS011;8539;53.188;8.696;2023-07-29T00:29:07;24.15;;;20.92;;
16845;SDS011;8539;53.188;8.696;2023-07-29T00:31:33;22.48;;;20.13;;
16845;SDS011;8539;53.188;8.696;2023-07-29T00:33:59;23.25;;;20.15;;
16845;SDS011;8539;53.188;8.696;2023-07-29T00:36:25;23.08;;;20.65;;
16845;SDS011;8539;53.188;8.696;2023-07-29T00:38:51;25.17;;;20.08;;
16845;SDS011;8539;53.188;8.696;2023-07-29T00:41:18;23.35;;;20.88;;
16845;SDS011;8539;53.188;8.696;2023-07-29T00:43:46;19.48;;;17.40;;
16845;SDS011;8539;53.188;8.696;2023-07-29T00:46:12;21.42;;;18.92;;
16845;SDS011;8539;53.188;8.696;2023-07-29T00:48:38;25.65;;;22.65;;
16845;SDS011;8539;53.188;8.696;2023-07-29T00:51:05;21.00;;;18.80;;
16845;SDS011;8539;53.188;8.696;2023-07-29T00:53:31;23.48;;;19.20;;
16845;SDS011;8539;53.188;8.696;2023-07-29T00:55:58;18.38;;;16.42;;
16845;SDS011;8539;53.188;8.696;2023-07-29T00:58:24;26.10;;;21.08;;
16845;SDS011;8539;53.188;8.696;2023-07-29T01:00:50;25.48;;;19.92;;
16845;SDS011;8539;53.188;8.696;2023-07-29T01:03:17;22.10;;;19.33;;
16845;SDS011;8539;53.188;8.696;2023-07-29T01:05:50;20.95;;;18.42;;
16845;SDS011;8539;53.188;8.696;2023-07-29T01:13:58;21.63;;;18.67;;
16845;SDS011;8539;53.188;8.696;2023-07-29T01:16:51;25.27;;;20.33;;
16845;SDS011;8539;53.188;8.696;2023-07-29T01:22:16;26.73;;;19.38;;
16845;SDS011;8539;53.188;8.696;2023-07-29T01:24:43;21.98;;;19.15;;
16845;SDS011;8539;53.188;8.696;2023-07-29T01:27:09;25.42;;;19.15;;
16845;SDS011;8539;53.188;8.696;2023-07-29T01:29:35;25.23;;;20.20;;
16845;SDS011;8539;53.188;8.696;2023-07-29T01:32:04;21.13;;;18.95;;
16845;SDS011;8539;53.188;8.696;2023-07-29T01:37:48;22.15;;;19.85;;
16845;SDS011;8539;53.188;8.696;2023-07-29T01:40:18;25.73;;;19.58;;
16845;SDS011;8539;53.188;8.696;2023-07-29T01:42:44;20.75;;;18.63;;
16845;SDS011;8539;53.188;8.696;2023-07-29T01:45:11;22.75;;;20.45;;
16845;SDS011;8539;53.188;8.696;2023-07-29T01:47:37;26.98;;;19.48;;
16845;SDS011;8539;53.188;8.696;2023-07-29T01:50:06;25.45;;;19.52;;
16845;SDS011;8539;53.188;8.696;2023-07-29T01:52:33;22.70;;;19.85;;
16845;SDS011;8539;53.188;8.696;2023-07-29T01:54:59;26.67;;;21.40;;
16845;SDS011;8539;53.188;8.696;2023-07-29T01:57:25;27.15;;;22.58;;
16845;SDS011;8539;53.188;8.696;2023-07-29T01:59:51;30.88;;;21.88;;
16845;SDS011;8539;53.188;8.696;2023-07-29T02:02:17;29.77;;;22.63;;
16845;SDS011;8539;53.188;8.696;2023-07-29T02:04:43;23.50;;;20.48;;
16845;SDS011;8539;53.188;8.696;2023-07-29T02:07:10;36.97;;;21.27;;
16845;SDS011;8539;53.188;8.696;2023-07-29T02:09:36;27.67;;;23.48;;
16845;SDS011;8539;53.188;8.696;2023-07-29T02:12:03;25.15;;;19.95;;
16845;SDS011;8539;53.188;8.696;2023-07-29T02:14:29;27.67;;;22.15;;
16845;SDS011;8539;53.188;8.696;2023-07-29T02:16:55;24.98;;;20.42;;
16845;SDS011;8539;53.188;8.696;2023-07-29T02:19:21;24.58;;;20.60;;
16845;SDS011;8539;53.188;8.696;2023-07-29T02:21:47;29.23;;;23.33;;
16845;SDS011;8539;53.188;8.696;2023-07-29T02:24:13;29.27;;;23.80;;
16845;SDS011;8539;53.188;8.696;2023-07-29T02:26:39;25.85;;;20.50;;
16845;SDS011;8539;53.188;8.696;2023-07-29T02:29:06;24.30;;;18.95;;
16845;SDS011;8539;53.188;8.696;2023-07-29T02:31:32;26.25;;;21.50;;
16845;SDS011;8539;53.188;8.696;2023-07-29T02:34:00;30.25;;;24.80;;
16845;SDS011;8539;53.188;8.696;2023-07-29T02:36:46;23.77;;;19.92;;
16845;SDS011;8539;53.188;8.696;2023-07-29T02:39:12;30.42;;;21.20;;
16845;SDS011;8539;53.188;8.696;2023-07-29T02:41:38;25.70;;;22.27;;
16845;SDS011;8539;53.188;8.696;2023-07-29T02:44:26;27.08;;;21.52;;
16845;SDS011;8539;53.188;8.696;2023-07-29T02:47:16;34.20;;;23.83;;
16845;SDS011;8539;53.188;8.696;2023-07-29T02:49:48;31.42;;;22.98;;
16845;SDS011;8539;53.188;8.696;2023-07-29T02:52:14;35.00;;;23.45;;
16845;SDS011;8539;53.188;8.696;2023-07-29T02:54:46;28.33;;;22.77;;
16845;SDS011;8539;53.188;8.696;2023-07-29T02:58:03;32.55;;;24.27;;
16845;SDS011;8539;53.188;8.696;2023-07-29T03:00:30;31.27;;;23.98;;
16845;SDS011;8539;53.188;8.696;2023-07-29T03:03:26;32.78;;;23.95;;
16845;SDS011;8539;53.188;8.696;2023-07-29T03:06:21;30.00;;;24.15;;
16845;SDS011;8539;53.188;8.696;2023-07-29T03:13:59;31.65;;;23.73;;
16845;SDS011;8539;53.188;8.696;2023-07-29T03:16:26;30.30;;;23.67;;
16845;SDS011;8539;53.188;8.696;2023-07-29T03:18:52;28.50;;;24.02;;
16845;SDS011;8539;53.188;8.696;2023-07-29T03:21:18;27.13;;;22.63;;
16845;SDS011;8539;53.188;8.696;2023-07-29T03:23:44;31.27;;;23.52;;
16845;SDS011;8539;53.188;8.696;2023-07-29T03:26:10;27.75;;;21.55;;
16845;SDS011;8539;53.188;8.696;2023-07-29T03:28:39;29.23;;;23.27;;
16845;SDS011;8539;53.188;8.696;2023-07-29T03:31:06;28.50;;;21.42;;
16845;SDS011;8539;53.188;8.696;2023-07-29T03:33:33;27.70;;;22.60;;
16845;SDS011;8539;53.188;8.696;2023-07-29T03:35:59;28.52;;;22.08;;
16845;SDS011;8539;53.188;8.696;2023-07-29T03:38:25;25.05;;;19.95;;
16845;SDS011;8539;53.188;8.696;2023-07-29T03:40:51;32.70;;;23.50;;
16845;SDS011;8539;53.188;8.696;2023-07-29T03:43:18;30.00;;;23.08;;
16845;SDS011;8539;53.188;8.696;2023-07-29T03:45:44;35.50;;;24.38;;
16845;SDS011;8539;53.188;8.696;2023-07-29T03:48:11;35.13;;;23.70;;
16845;SDS011;8539;53.188;8.696;2023-07-29T03:50:37;32.65;;;25.13;;
16845;SDS011;8539;53.188;8.696;2023-07-29T03:53:03;38.40;;;24.30;;
16845;SDS011;8539;53.188;8.696;2023-07-29T03:55:30;32.17;;;25.05;;
16845;SDS011;8539;53.188;8.696;2023-07-29T03:57:56;35.67;;;23.63;;
16845;SDS011;8539;53.188;8.696;2023-07-29T04:00:23;38.55;;;24.80;;
16845;SDS011;8539;53.188;8.696;2023-07-29T04:02:52;31.83;;;23.00;;
16845;SDS011;8539;53.188;8.696;2023-07-29T04:05:18;31.33;;;23.33;;
16845;SDS011;8539;53.188;8.696;2023-07-29T04:07:44;35.17;;;24.40;;
16845;SDS011;8539;53.188;8.696;2023-07-29T04:10:10;32.47;;;24.70;;
16845;SDS011;8539;53.188;8.696;2023-07-29T04:12:36;29.65;;;23.25;;
16845;SDS011;8539;53.188;8.696;2023-07-29T04:15:03;30.50;;;22.15;;
16845;SDS011;8539;53.188;8.696;2023-07-29T04:17:29;29.15;;;23.35;;
16845;SDS011;8539;53.188;8.696;2023-07-29T04:19:55;35.20;;;24.48;;
16845;SDS011;8539;53.188;8.696;2023-07-29T04:22:21;39.13;;;26.23;;
16845;SDS011;8539;53.188;8.696;2023-07-29T04:24:47;33.78;;;25.33;;
16845;SDS011;8539;53.188;8.696;2023-07-29T04:27:13;32.08;;;23.40;;
16845;SDS011;8539;53.188;8.696;2023-07-29T04:29:39;42.25;;;25.20;;
16845;SDS011;8539;53.188;8.696;2023-07-29T04:32:05;38.63;;;24.35;;
16845;SDS011;8539;53.188;8.696;2023-07-29T04:34:31;35.95;;;24.52;;
16845;SDS011;8539;53.188;8.696;2023-07-29T04:36:57;30.52;;;22.90;;
16845;SDS011;8539;53.188;8.696;2023-07-29T04:39:24;37.65;;;26.45;;
16845;SDS011;8539;53.188;8.696;2023-07-29T04:41:50;35.40;;;24.20;;
16845;SDS011;8539;53.188;8.696;2023-07-29T04:44:17;37.00;;;26.02;;
16845;SDS011;8539;53.188;8.696;2023-07-29T04:46:43;43.13;;;26.75;;
16845;SDS011;8539;53.188;8.696;2023-07-29T04:49:10;34.83;;;22.90;;
16845;SDS011;8539;53.188;8.696;2023-07-29T04:51:36;40.28;;;23.83;;
16845;SDS011;8539;53.188;8.696;2023-07-29T04:54:03;35.47;;;24.23;;
16845;SDS011;8539;53.188;8.696;2023-07-29T04:56:29;37.13;;;23.73;;
16845;SDS011;8539;53.188;8.696;2023-07-29T04:58:56;31.13;;;21.30;;
16845;SDS011;8539;53.188;8.696;2023-07-29T05:01:22;40.78;;;23.05;;
16845;SDS011;8539;53.188;8.696;2023-07-29T05:03:48;33.05;;;24.38;;
16845;SDS011;8539;53.188;8.696;2023-07-29T05:06:55;37.58;;;24.63;;
16845;SDS011;8539;53.188;8.696;2023-07-29T05:09:54;31.70;;;22.38;;
16845;SDS011;8539;53.188;8.696;2023-07-29T05:12:44;25.98;;;20.13;;
16845;SDS011;8539;53.188;8.696;2023-07-29T05:18:17;28.02;;;21.52;;
16845;SDS011;8539;53.188;8.696;2023-07-29T05:20:43;28.70;;;21.60;;
16845;SDS011;8539;53.188;8.696;2023-07-29T05:23:09;33.60;;;22.50;;
16845;SDS011;8539;53.188;8.696;2023-07-29T05:25:41;28.75;;;22.08;;
16845;SDS011;8539;53.188;8.696;2023-07-29T05:28:15;31.95;;;23.75;;
16845;SDS011;8539;53.188;8.696;2023-07-29T05:30:41;31.38;;;23.75;;
16845;SDS011;8539;53.188;8.696;2023-07-29T05:33:09;32.92;;;22.42;;
16845;SDS011;8539;53.188;8.696;2023-07-29T05:35:36;31.40;;;21.77;;
16845;SDS011;8539;53.188;8.696;2023-07-29T05:38:05;26.85;;;20.60;;
16845;SDS011;8539;53.188;8.696;2023-07-29T05:40:33;30.00;;;21.52;;
16845;SDS011;8539;53.188;8.696;2023-07-29T05:43:00;24.52;;;20.92;;
16845;SDS011;8539;53.188;8.696;2023-07-29T05:45:26;27.13;;;19.50;;
16845;SDS011;8539;53.188;8.696;2023-07-29T05:47:52;23.67;;;19.45;;
16845;SDS011;8539;53.188;8.696;2023-07-29T05:50:19;28.10;;;20.88;;
16845;SDS011;8539;53.188;8.696;2023-07-29T05:52:45;21.27;;;18.40;;
16845;SDS011;8539;53.188;8.696;2023-07-29T05:55:11;24.20;;;20.27;;
16845;SDS011;8539;53.188;8.696;2023-07-29T05:57:37;27.13;;;19.65;;
16845;SDS011;8539;53.188;8.696;2023-07-29T06:00:04;26.33;;;19.73;;
16845;SDS011;8539;53.188;8.696;2023-07-29T06:02:33;24.70;;;18.83;;
16845;SDS011;8539;53.188;8.696;2023-07-29T06:04:59;29.33;;;19.98;;
16845;SDS011;8539;53.188;8.696;2023-07-29T06:07:26;22.70;;;18.77;;
16845;SDS011;8539;53.188;8.696;2023-07-29T06:09:55;23.40;;;19.50;;
16845;SDS011;8539;53.188;8.696;2023-07-29T06:12:21;28.73;;;20.33;;
16845;SDS011;8539;53.188;8.696;2023-07-29T06:14:47;24.42;;;19.48;;
16845;SDS011;8539;53.188;8.696;2023-07-29T06:17:13;23.52;;;18.70;;
16845;SDS011;8539;53.188;8.696;2023-07-29T06:19:40;21.52;;;19.02;;
16845;SDS011;8539;53.188;8.696;2023-07-29T06:22:06;25.25;;;19.20;;
16845;SDS011;8539;53.188;8.696;2023-07-29T06:24:32;24.33;;;19.42;;
16845;SDS011;8539;53.188;8.696;2023-07-29T06:26:58;20.67;;;17.67;;
16845;SDS011;8539;53.188;8.696;2023-07-29T06:29:24;22.92;;;18.55;;
16845;SDS011;8539;53.188;8.696;2023-07-29T06:31:50;21.90;;;18.30;;
16845;SDS011;8539;53.188;8.696;2023-07-29T06:34:17;22.77;;;17.98;;
16845;SDS011;8539;53.188;8.696;2023-07-29T06:36:44;21.27;;;17.23;;
16845;SDS011;8539;53.188;8.696;2023-07-29T06:39:10;22.58;;;18.98;;
16845;SDS011;8539;53.188;8.696;2023-07-29T06:41:36;21.83;;;18.85;;
16845;SDS011;8539;53.188;8.696;2023-07-29T06:44:03;23.73;;;18.70;;
16845;SDS011;8539;53.188;8.696;2023-07-29T06:46:29;27.38;;;18.25;;
16845;SDS011;8539;53.188;8.696;2023-07-29T06:48:56;25.42;;;18.02;;
16845;SDS011;8539;53.188;8.696;2023-07-29T06:51:22;22.05;;;15.65;;
16845;SDS011;8539;53.188;8.696;2023-07-29T06:53:48;21.25;;;16.77;;
16845;SDS011;8539;53.188;8.696;2023-07-29T06:56:21;20.23;;;15.45;;
16845;SDS011;8539;53.188;8.696;2023-07-29T06:58:47;17.95;;;16.05;;
16845;SDS011;8539;53.188;8.696;2023-07-29T07:01:13;18.42;;;16.45;;
16845;SDS011;8539;53.188;8.696;2023-07-29T07:03:42;17.85;;;15.00;;
16845;SDS011;8539;53.188;8.696;2023-07-29T07:06:11;20.73;;;15.32;;
16845;SDS011;8539;53.188;8.696;2023-07-29T07:08:38;17.90;;;13.75;;
16845;SDS011;8539;53.188;8.696;2023-07-29T07:11:04;18.13;;;14.60;;
16845;SDS011;8539;53.188;8.696;2023-07-29T07:13:30;14.48;;;12.90;;
16845;SDS011;8539;53.188;8.696;2023-07-29T07:15:56;16.55;;;12.60;;
16845;SDS011;8539;53.188;8.696;2023-07-29T07:18:36;15.48;;;12.65;;
16845;SDS011;8539;53.188;8.696;2023-07-29T07:21:07;11.27;;;10.02;;
16845;SDS011;8539;53.188;8.696;2023-07-29T07:23:42;14.27;;;9.15;;
16845;SDS011;8539;53.188;8.696;2023-07-29T07:26:11;12.65;;;9.32;;
16845;SDS011;8539;53.188;8.696;2023-07-29T07:28:37;12.48;;;8.15;;
16845;SDS011;8539;53.188;8.696;2023-07-29T07:31:04;10.63;;;8.88;;
16845;SDS011;8539;53.188;8.696;2023-07-29T07:33:30;10.25;;;8.10;;
16845;SDS011;8539;53.188;8.696;2023-07-29T07:35:58;8.85;;;7.70;;
16845;SDS011;8539;53.188;8.696;2023-07-29T07:38:24;9.68;;;6.07;;
16845;SDS011;8539;53.188;8.696;2023-07-29T07:40:54;8.23;;;6.15;;
16845;SDS011;8539;53.188;8.696;2023-07-29T07:43:22;6.07;;;4.80;;
16845;SDS011;8539;53.188;8.696;2023-07-29T07:45:48;5.68;;;4.85;;
16845;SDS011;8539;53.188;8.696;2023-07-29T07:48:14;4.75;;;3.78;;
16845;SDS011;8539;53.188;8.696;2023-07-29T07:50:42;4.13;;;3.50;;
16845;SDS011;8539;53.188;8.696;2023-07-29T07:53:08;6.68;;;3.58;;
16845;SDS011;8539;53.188;8.696;2023-07-29T07:55:34;5.03;;;3.60;;
16845;SDS011;8539;53.188;8.696;2023-07-29T07:58:00;4.32;;;3.08;;
16845;SDS011;8539;53.188;8.696;2023-07-29T08:00:26;3.15;;;2.85;;
16845;SDS011;8539;53.188;8.696;2023-07-29T08:02:54;4.40;;;3.20;;
16845;SDS011;8539;53.188;8.696;2023-07-29T08:05:20;4.45;;;2.60;;
16845;SDS011;8539;53.188;8.696;2023-07-29T08:07:46;5.97;;;2.75;;
16845;SDS011;8539;53.188;8.696;2023-07-29T08:10:12;4.32;;;2.75;;
16845;SDS011;8539;53.188;8.696;2023-07-29T08:12:38;3.72;;;2.47;;
16845;SDS011;8539;53.188;8.696;2023-07-29T08:15:04;3.03;;;2.35;;
16845;SDS011;8539;53.188;8.696;2023-07-29T08:17:31;4.82;;;2.30;;
16845;SDS011;8539;53.188;8.696;2023-07-29T08:19:57;2.67;;;2.40;;
16845;SDS011;8539;53.188;8.696;2023-07-29T08:22:23;2.00;;;1.83;;
16845;SDS011;8539;53.188;8.696;2023-07-29T08:24:49;2.83;;;2.00;;
16845;SDS011;8539;53.188;8.696;2023-07-29T08:27:15;2.92;;;2.05;;
16845;SDS011;8539;53.188;8.696;2023-07-29T08:29:41;2.45;;;2.00;;
16845;SDS011;8539;53.188;8.696;2023-07-29T08:32:07;2.88;;;2.10;;
16845;SDS011;8539;53.188;8.696;2023-07-29T08:34:33;1.90;;;1.50;;
16845;SDS011;8539;53.188;8.696;2023-07-29T08:36:59;4.20;;;2.08;;
16845;SDS011;8539;53.188;8.696;2023-07-29T08:39:25;3.25;;;2.00;;
16845;SDS011;8539;53.188;8.696;2023-07-29T08:42:07;2.42;;;2.22;;
16845;SDS011;8539;53.188;8.696;2023-07-29T08:44:39;3.63;;;1.83;;
16845;SDS011;8539;53.188;8.696;2023-07-29T08:47:09;3.15;;;1.85;;
16845;SDS011;8539;53.188;8.696;2023-07-29T08:49:35;2.40;;;2.20;;
16845;SDS011;8539;53.188;8.696;2023-07-29T08:52:02;2.10;;;1.90;;
16845;SDS011;8539;53.188;8.696;2023-07-29T08:54:30;6.55;;;2.22;;
16845;SDS011;8539;53.188;8.696;2023-07-29T08:56:56;2.95;;;2.30;;
16845;SDS011;8539;53.188;8.696;2023-07-29T08:59:23;3.45;;;2.33;;
16845;SDS011;8539;53.188;8.696;2023-07-29T09:01:49;5.30;;;2.55;;
16845;SDS011;8539;53.188;8.696;2023-07-29T09:04:16;3.50;;;2.47;;
16845;SDS011;8539;53.188;8.696;2023-07-29T09:06:43;3.25;;;2.53;;
16845;SDS011;8539;53.188;8.696;2023-07-29T09:09:09;7.30;;;2.90;;
16845;SDS011;8539;53.188;8.696;2023-07-29T09:11:36;3.42;;;2.85;;
16845;SDS011;8539;53.188;8.696;2023-07-29T09:14:02;4.55;;;2.20;;
16845;SDS011;8539;53.188;8.696;2023-07-29T09:16:28;4.15;;;2.72;;
16845;SDS011;8539;53.188;8.696;2023-07-29T09:18:54;4.85;;;3.08;;
16845;SDS011;8539;53.188;8.696;2023-07-29T09:21:23;2.40;;;1.90;;
16845;SDS011;8539;53.188;8.696;2023-07-29T09:23:54;2.50;;;1.90;;
16845;SDS011;8539;53.188;8.696;2023-07-29T09:26:23;3.53;;;2.28;;
16845;SDS011;8539;53.188;8.696;2023-07-29T09:28:54;3.65;;;2.15;;
16845;SDS011;8539;53.188;8.696;2023-07-29T09:31:21;2.65;;;2.00;;
16845;SDS011;8539;53.188;8.696;2023-07-29T09:33:49;2.13;;;1.92;;
16845;SDS011;8539;53.188;8.696;2023-07-29T09:36:15;3.75;;;2.20;;
16845;SDS011;8539;53.188;8.696;2023-07-29T09:38:42;3.58;;;2.30;;
16845;SDS011;8539;53.188;8.696;2023-07-29T09:41:11;2.60;;;2.40;;
16845;SDS011;8539;53.188;8.696;2023-07-29T09:43:39;4.50;;;2.75;;
16845;SDS011;8539;53.188;8.696;2023-07-29T09:46:06;4.40;;;2.28;;
16845;SDS011;8539;53.188;8.696;2023-07-29T09:48:36;4.63;;;2.88;;
16845;SDS011;8539;53.188;8.696;2023-07-29T09:51:14;4.43;;;3.15;;
16845;SDS011;8539;53.188;8.696;2023-07-29T09:53:45;2.97;;;2.72;;
16845;SDS011;8539;53.188;8.696;2023-07-29T09:56:13;4.07;;;2.88;;
16845;SDS011;8539;53.188;8.696;2023-07-29T09:58:43;4.55;;;2.35;;
16845;SDS011;8539;53.188;8.696;2023-07-29T10:01:13;6.70;;;3.40;;
16845;SDS011;8539;53.188;8.696;2023-07-29T10:03:39;5.15;;;2.85;;
16845;SDS011;8539;53.188;8.696;2023-07-29T10:06:06;3.88;;;2.80;;
16845;SDS011;8539;53.188;8.696;2023-07-29T10:08:33;4.82;;;3.00;;
16845;SDS011;8539;53.188;8.696;2023-07-29T10:11:09;3.50;;;2.90;;
16845;SDS011;8539;53.188;8.696;2023-07-29T10:13:36;5.00;;;2.72;;
16845;SDS011;8539;53.188;8.696;2023-07-29T10:16:03;2.90;;;2.30;;
16845;SDS011;8539;53.188;8.696;2023-07-29T10:18:31;3.17;;;2.15;;
16845;SDS011;8539;53.188;8.696;2023-07-29T10:20:59;4.75;;;2.55;;
16845;SDS011;8539;53.188;8.696;2023-07-29T10:23:26;3.63;;;2.70;;
16845;SDS011;8539;53.188;8.696;2023-07-29T10:26:11;2.50;;;2.30;;
16845;SDS011;8539;53.188;8.696;2023-07-29T10:28:43;4.35;;;2.85;;
16845;SDS011;8539;53.188;8.696;2023-07-29T10:31:12;5.68;;;2.47;;
16845;SDS011;8539;53.188;8.696;2023-07-29T10:33:41;2.80;;;2.58;;
16845;SDS011;8539;53.188;8.696;2023-07-29T10:36:08;3.90;;;2.90;;
16845;SDS011;8539;53.188;8.696;2023-07-29T10:38:34;3.30;;;2.40;;
16845;SDS011;8539;53.188;8.696;2023-07-29T10:41:00;5.13;;;2.33;;
16845;SDS011;8539;53.188;8.696;2023-07-29T10:43:28;3.67;;;2.00;;
16845;SDS011;8539;53.188;8.696;2023-07-29T10:46:12;4.60;;;2.10;;
16845;SDS011;8539;53.188;8.696;2023-07-29T10:48:44;3.95;;;2.05;;
16845;SDS011;8539;53.188;8.696;2023-07-29T10:51:24;2.72;;;1.95;;
16845;SDS011;8539;53.188;8.696;2023-07-29T10:53:53;2.28;;;1.80;;
16845;SDS011;8539;53.188;8.696;2023-07-29T10:56:28;3.03;;;2.72;;
16845;SDS011;8539;53.188;8.696;2023-07-29T10:58:55;2.47;;;2.00;;
16845;SDS011;8539;53.188;8.696;2023-07-29T11:01:30;2.22;;;1.80;;
16845;SDS011;8539;53.188;8.696;2023-07-29T11:04:21;3.65;;;2.00;;
16845;SDS011;8539;53.188;8.696;2023-07-29T11:09:42;3.50;;;1.75;;
16845;SDS011;8539;53.188;8.696;2023-07-29T11:17:36;4.27;;;2.07;;
16845;SDS011;8539;53.188;8.696;2023-07-29T11:20:16;3.03;;;2.45;;
16845;SDS011;8539;53.188;8.696;2023-07-29T11:22:44;2.63;;;1.88;;
16845;SDS011;8539;53.188;8.696;2023-07-29T11:25:11;2.83;;;2.15;;
16845;SDS011;8539;53.188;8.696;2023-07-29T11:27:39;3.13;;;1.90;;
16845;SDS011;8539;53.188;8.696;2023-07-29T11:30:09;3.08;;;2.00;;
16845;SDS011;8539;53.188;8.696;2023-07-29T11:32:38;3.80;;;2.10;;
16845;SDS011;8539;53.188;8.696;2023-07-29T11:35:06;3.17;;;2.30;;
16845;SDS011;8539;53.188;8.696;2023-07-29T11:37:35;4.25;;;2.40;;
16845;SDS011;8539;53.188;8.696;2023-07-29T11:40:02;9.13;;;2.40;;
16845;SDS011;8539;53.188;8.696;2023-07-29T11:42:31;4.78;;;1.90;;
16845;SDS011;8539;53.188;8.696;2023-07-29T11:44:59;2.33;;;2.13;;
16845;SDS011;8539;53.188;8.696;2023-07-29T11:47:26;2.30;;;1.63;;
16845;SDS011;8539;53.188;8.696;2023-07-29T11:49:53;4.75;;;2.25;;
16845;SDS011;8539;53.188;8.696;2023-07-29T11:52:19;3.13;;;2.05;;
16845;SDS011;8539;53.188;8.696;2023-07-29T11:54:48;4.43;;;1.80;;
16845;SDS011;8539;53.188;8.696;2023-07-29T11:57:15;3.20;;;1.92;;
16845;SDS011;8539;53.188;8.696;2023-07-29T11:59:43;2.90;;;1.80;;
16845;SDS011;8539;53.188;8.696;2023-07-29T12:02:15;2.60;;;2.00;;
16845;SDS011;8539;53.188;8.696;2023-07-29T12:04:43;4.35;;;2.00;;
16845;SDS011;8539;53.188;8.696;2023-07-29T12:07:12;4.57;;;2.35;;
16845;SDS011;8539;53.188;8.696;2023-07-29T12:09:39;6.53;;;2.40;;
16845;SDS011;8539;53.188;8.696;2023-07-29T12:12:06;2.10;;;1.90;;
16845;SDS011;8539;53.188;8.696;2023-07-29T12:14:33;2.17;;;2.00;;
16845;SDS011;8539;53.188;8.696;2023-07-29T12:17:01;2.25;;;2.03;;
16845;SDS011;8539;53.188;8.696;2023-07-29T12:19:35;2.70;;;1.67;;
16845;SDS011;8539;53.188;8.696;2023-07-29T12:22:02;2.20;;;1.80;;
16845;SDS011;8539;53.188;8.696;2023-07-29T12:24:30;3.20;;;2.20;;
16845;SDS011;8539;53.188;8.696;2023-07-29T12:26:57;2.95;;;1.77;;
16845;SDS011;8539;53.188;8.696;2023-07-29T12:29:24;3.35;;;2.08;;
16845;SDS011;8539;53.188;8.696;2023-07-29T12:31:57;2.72;;;1.75;;
16845;SDS011;8539;53.188;8.696;2023-07-29T12:34:25;3.60;;;1.70;;
16845;SDS011;8539;53.188;8.696;2023-07-29T12:36:54;2.72;;;1.88;;
16845;SDS011;8539;53.188;8.696;2023-07-29T12:39:25;2.08;;;1.52;;
16845;SDS011;8539;53.188;8.696;2023-07-29T12:41:57;3.72;;;1.88;;
16845;SDS011;8539;53.188;8.696;2023-07-29T12:44:33;3.13;;;1.90;;
16845;SDS011;8539;53.188;8.696;2023-07-29T12:47:01;3.35;;;2.20;;
16845;SDS011;8539;53.188;8.696;2023-07-29T12:49:28;3.05;;;1.70;;
16845;SDS011;8539;53.188;8.696;2023-07-29T12:51:56;5.13;;;1.92;;
16845;SDS011;8539;53.188;8.696;2023-07-29T12:54:22;2.40;;;1.70;;
16845;SDS011;8539;53.188;8.696;2023-07-29T12:56:48;4.90;;;2.33;;
16845;SDS011;8539;53.188;8.696;2023-07-29T12:59:14;3.40;;;1.92;;
16845;SDS011;8539;53.188;8.696;2023-07-29T13:01:40;2.60;;;1.77;;
16845;SDS011;8539;53.188;8.696;2023-07-29T13:04:07;3.22;;;2.17;;
16845;SDS011;8539;53.188;8.696;2023-07-29T13:06:33;2.00;;;1.80;;
16845;SDS011;8539;53.188;8.696;2023-07-29T13:08:58;1.90;;;1.40;;
16845;SDS011;8539;53.188;8.696;2023-07-29T13:11:25;2.60;;;1.45;;
16845;SDS011;8539;53.188;8.696;2023-07-29T13:13:51;2.28;;;2.10;;
16845;SDS011;8539;53.188;8.696;2023-07-29T13:16:17;2.92;;;1.83;;
16845;SDS011;8539;53.188;8.696;2023-07-29T13:18:44;3.13;;;2.00;;
16845;SDS011;8539;53.188;8.696;2023-07-29T13:21:10;2.35;;;1.70;;
16845;SDS011;8539;53.188;8.696;2023-07-29T13:23:36;3.30;;;2.08;;
16845;SDS011;8539;53.188;8.696;2023-07-29T13:26:02;2.47;;;2.08;;
16845;SDS011;8539;53.188;8.696;2023-07-29T13:28:28;2.28;;;1.80;;
16845;SDS011;8539;53.188;8.696;2023-07-29T13:30:54;3.92;;;1.88;;
16845;SDS011;8539;53.188;8.696;2023-07-29T13:33:20;1.73;;;1.27;;
16845;SDS011;8539;53.188;8.696;2023-07-29T13:35:47;1.63;;;1.52;;
16845;SDS011;8539;53.188;8.696;2023-07-29T13:38:13;1.83;;;1.58;;
16845;SDS011;8539;53.188;8.696;2023-07-29T13:40:39;4.15;;;1.80;;
16845;SDS011;8539;53.188;8.696;2023-07-29T13:43:06;4.78;;;1.90;;
16845;SDS011;8539;53.188;8.696;2023-07-29T13:45:33;3.47;;;1.83;;
16845;SDS011;8539;53.188;8.696;2023-07-29T13:47:59;2.42;;;1.67;;
16845;SDS011;8539;53.188;8.696;2023-07-29T13:50:26;2.67;;;1.65;;
16845;SDS011;8539;53.188;8.696;2023-07-29T13:52:52;3.78;;;1.75;;
16845;SDS011;8539;53.188;8.696;2023-07-29T13:55:18;2.72;;;1.65;;
16845;SDS011;8539;53.188;8.696;2023-07-29T13:57:44;1.33;;;1.15;;
16845;SDS011;8539;53.188;8.696;2023-07-29T14:00:10;2.05;;;1.40;;
16845;SDS011;8539;53.188;8.696;2023-07-29T14:02:37;3.13;;;1.77;;
16845;SDS011;8539;53.188;8.696;2023-07-29T14:05:03;1.65;;;1.52;;
16845;SDS011;8539;53.188;8.696;2023-07-29T14:07:32;2.35;;;1.80;;
16845;SDS011;8539;53.188;8.696;2023-07-29T14:09:58;2.15;;;1.95;;
16845;SDS011;8539;53.188;8.696;2023-07-29T14:12:24;2.25;;;1.52;;
16845;SDS011;8539;53.188;8.696;2023-07-29T14:14:50;1.73;;;1.48;;
16845;SDS011;8539;53.188;8.696;2023-07-29T14:17:16;3.53;;;1.60;;
16845;SDS011;8539;53.188;8.696;2023-07-29T14:19:42;2.95;;;1.38;;
16845;SDS011;8539;53.188;8.696;2023-07-29T14:22:08;1.67;;;1.58;;
16845;SDS011;8539;53.188;8.696;2023-07-29T14:24:34;3.72;;;2.55;;
16845;SDS011;8539;53.188;8.696;2023-07-29T14:27:00;3.63;;;1.90;;
16845;SDS011;8539;53.188;8.696;2023-07-29T14:29:26;2.25;;;1.50;;
16845;SDS011;8539;53.188;8.696;2023-07-29T14:31:52;1.65;;;1.30;;
16845;SDS011;8539;53.188;8.696;2023-07-29T14:34:18;1.95;;;1.30;;
16845;SDS011;8539;53.188;8.696;2023-07-29T14:36:44;1.40;;;1.30;;
16845;SDS011;8539;53.188;8.696;2023-07-29T14:39:10;2.40;;;1.60;;
16845;SDS011;8539;53.188;8.696;2023-07-29T14:41:37;3.35;;;1.73;;
16845;SDS011;8539;53.188;8.696;2023-07-29T14:44:03;2.83;;;2.03;;
16845;SDS011;8539;53.188;8.696;2023-07-29T14:46:29;2.00;;;1.65;;
16845;SDS011;8539;53.188;8.696;2023-07-29T14:48:56;3.08;;;1.95;;
16845;SDS011;8539;53.188;8.696;2023-07-29T14:51:22;2.20;;;2.00;;
16845;SDS011;8539;53.188;8.696;2023-07-29T14:53:48;4.40;;;2.70;;
16845;SDS011;8539;53.188;8.696;2023-07-29T14:56:15;4.00;;;2.30;;
16845;SDS011;8539;53.188;8.696;2023-07-29T14:58:43;3.08;;;2.25;;
16845;SDS011;8539;53.188;8.696;2023-07-29T15:01:10;6.38;;;2.50;;
16845;SDS011;8539;53.188;8.696;2023-07-29T15:03:36;6.57;;;3.58;;
16845;SDS011;8539;53.188;8.696;2023-07-29T15:06:02;4.40;;;3.35;;
16845;SDS011;8539;53.188;8.696;2023-07-29T15:08:29;4.35;;;3.03;;
16845;SDS011;8539;53.188;8.696;2023-07-29T15:10:55;5.30;;;3.15;;
16845;SDS011;8539;53.188;8.696;2023-07-29T15:13:21;5.50;;;3.28;;
16845;SDS011;8539;53.188;8.696;2023-07-29T15:15:47;5.05;;;2.97;;
16845;SDS011;8539;53.188;8.696;2023-07-29T15:18:16;3.85;;;3.28;;
16845;SDS011;8539;53.188;8.696;2023-07-29T15:20:42;4.15;;;2.70;;
16845;SDS011;8539;53.188;8.696;2023-07-29T15:23:09;3.03;;;2.67;;